TimeEDT,TemperatureF,Dew PointF,Humidity,Sea Level PressureIn,VisibilityMPH,Wind Direction,Wind SpeedMPH,Gust SpeedMPH,PrecipitationIn,Events,Conditions,WindDirDegrees,DateUTC
12:51 AM,63.9,61.0,90,30.83,10.0,Calm,Calm,-,N/A,,Clear,0,2013-08-21 04:51:00
1:51 AM,63.9,61.0,90,30.83,10.0,Calm,Calm,-,N/A,,Clear,0,2013-08-21 05:51:00
2:51 AM,63.0,59.9,90,30.84,10.0,Calm,Calm,-,N/A,,Clear,0,2013-08-21 06:51:00
3:51 AM,61.9,59.9,93,30.84,10.0,Calm,Calm,-,N/A,,Clear,0,2013-08-21 07:51:00
4:51 AM,61.0,59.9,96,30.85,8.0,Calm,Calm,-,N/A,,Clear,0,2013-08-21 08:51:00
5:51 AM,59.9,57.9,93,30.86,10.0,Calm,Calm,-,N/A,,Clear,0,2013-08-21 09:51:00
6:51 AM,61.0,59.0,93,30.87,10.0,Calm,Calm,-,N/A,,Clear,0,2013-08-21 10:51:00
7:51 AM,66.9,61.0,81,30.88,10.0,Calm,Calm,-,N/A,,Clear,0,2013-08-21 11:51:00
8:51 AM,72.9,61.9,68,30.87,10.0,Calm,Calm,-,N/A,,Clear,0,2013-08-21 12:51:00
9:51 AM,77.9,61.9,58,30.87,10.0,NW,3.5,-,N/A,,Clear,320,2013-08-21 13:51:00
10:51 AM,81.9,63.0,53,30.86,10.0,Calm,Calm,-,N/A,,Clear,0,2013-08-21 14:51:00
11:51 AM,84.9,63.0,48,30.85,10.0,Variable,3.5,-,N/A,,Clear,0,2013-08-21 15:51:00
12:51 PM,86.0,63.0,46,30.84,7.0,Variable,5.8,-,N/A,,Clear,0,2013-08-21 16:51:00
1:51 PM,88.0,61.9,41,30.82,10.0,Variable,4.6,-,N/A,,Clear,0,2013-08-21 17:51:00
2:51 PM,88.0,61.9,41,30.81,10.0,WSW,5.8,-,N/A,,Clear,240,2013-08-21 18:51:00
3:51 PM,88.9,59.9,38,30.79,10.0,Variable,4.6,-,N/A,,Clear,0,2013-08-21 19:51:00
4:51 PM,88.0,61.0,40,30.77,10.0,West,6.9,-,N/A,,Clear,270,2013-08-21 20:51:00
5:51 PM,86.9,61.9,43,30.77,10.0,Variable,3.5,-,N/A,,Clear,0,2013-08-21 21:51:00
6:51 PM,83.8,64.9,53,30.76,10.0,Calm,Calm,-,N/A,,Clear,0,2013-08-21 22:51:00
7:51 PM,79.0,63.9,60,30.76,10.0,Variable,3.5,-,N/A,,Clear,0,2013-08-21 23:51:00
8:51 PM,75.9,63.9,66,30.77,10.0,Calm,Calm,-,N/A,,Clear,0,2013-08-22 00:51:00
9:51 PM,72.0,63.9,76,30.76,10.0,NNW,4.6,-,N/A,,Clear,330,2013-08-22 01:51:00
10:51 PM,68.9,63.0,81,30.76,10.0,NNW,3.5,-,N/A,,Clear,340,2013-08-22 02:51:00
11:51 PM,68.0,61.9,81,30.75,10.0,Calm,Calm,-,N/A,,Clear,0,2013-08-22 03:51:00